Time;durP1;ratioP1;P1;durP2;ratioP2;P2;SDS_P1;SDS_P2;PMS_P1;PMS_P2;Temp;Humidity;BMP_temperature;BMP_pressure;BME280_temperature;BME280_humidity;BME280_pressure;Samples;Min_cycle;Max_cycle;Signal;HPM_P1;HPM_P2
2020/12/09 00:01:23;;;;;;;26.37;21.70;;;1.70;99.90;;;;;;5073151;28;20175;-56
2020/12/09 00:03:48;;;;;;;28.17;20.67;;;1.70;99.90;;;;;;5072799;28;20198;-55
2020/12/09 00:06:14;;;;;;;25.50;18.87;;;1.70;99.90;;;;;;5072924;28;20195;-54
2020/12/09 00:08:40;;;;;;;22.90;17.03;;;1.70;99.90;;;;;;5072450;28;20182;-54
2020/12/09 00:11:07;;;;;;;25.07;18.63;;;1.70;99.90;;;;;;5072891;28;20406;-55
2020/12/09 00:13:33;;;;;;;21.67;17.20;;;1.70;99.90;;;;;;5072823;28;20190;-55
2020/12/09 00:15:58;;;;;;;28.83;21.27;;;1.70;99.90;;;;;;5072756;28;20431;-55
2020/12/09 00:18:24;;;;;;;19.70;16.50;;;1.70;99.90;;;;;;5072519;28;20179;-54
2020/12/09 00:20:50;;;;;;;23.53;18.93;;;1.70;99.90;;;;;;5072624;28;20711;-55
2020/12/09 00:23:15;;;;;;;22.47;19.40;;;1.60;99.90;;;;;;5071299;28;20225;-53
2020/12/09 00:25:41;;;;;;;24.50;18.03;;;1.70;99.90;;;;;;5072284;28;20210;-57
2020/12/09 00:28:07;;;;;;;25.60;17.57;;;1.60;99.90;;;;;;5072585;28;20171;-57
2020/12/09 00:30:32;;;;;;;29.83;18.87;;;1.60;99.90;;;;;;5072296;28;20182;-58
2020/12/09 00:32:58;;;;;;;21.67;17.40;;;1.60;99.90;;;;;;5072476;28;20552;-56
2020/12/09 00:35:23;;;;;;;29.30;18.53;;;1.70;99.90;;;;;;5072356;28;20168;-54
2020/12/09 00:37:49;;;;;;;28.23;21.13;;;1.70;99.90;;;;;;5071759;28;20697;-55
2020/12/09 00:40:15;;;;;;;28.83;20.13;;;1.80;99.90;;;;;;5072376;28;20182;-58
2020/12/09 00:42:40;;;;;;;24.03;19.93;;;1.90;99.90;;;;;;5072096;28;20269;-59
2020/12/09 00:45:06;;;;;;;25.60;19.33;;;1.80;99.90;;;;;;5072296;28;20176;-57
2020/12/09 00:47:32;;;;;;;26.60;20.07;;;1.80;99.90;;;;;;5071780;28;20206;-57
2020/12/09 00:50:39;;;;;;;24.30;18.53;;;1.80;99.90;;;;;;5072241;28;20688;-54
2020/12/09 00:52:46;;;;;;;27.20;19.47;;;1.80;99.90;;;;;;5074117;28;20564;-56
2020/12/09 00:55:12;;;;;;;21.57;17.90;;;1.90;99.90;;;;;;5072125;28;20402;-58
2020/12/09 00:57:37;;;;;;;24.90;19.83;;;1.80;99.90;;;;;;5071789;28;20215;-58
2020/12/09 01:00:07;;;;;;;25.33;18.57;;;1.90;99.90;;;;;;5071940;28;20207;-59
2020/12/09 01:02:33;;;;;;;24.10;18.93;;;1.80;99.90;;;;;;5072039;28;20195;-59
2020/12/09 01:04:59;;;;;;;20.23;17.33;;;1.80;99.90;;;;;;5071685;28;20431;-55
2020/12/09 01:07:25;;;;;;;24.30;18.00;;;1.80;99.90;;;;;;5071620;28;20203;-57
2020/12/09 01:09:50;;;;;;;23.93;16.67;;;1.80;99.90;;;;;;5071406;28;20413;-59
2020/12/09 01:12:16;;;;;;;25.03;19.30;;;1.90;99.90;;;;;;5071578;28;20234;-58
2020/12/09 01:14:42;;;;;;;26.10;20.33;;;1.70;99.90;;;;;;5071723;28;20167;-58
2020/12/09 01:17:07;;;;;;;23.73;18.30;;;1.80;99.90;;;;;;5071597;28;20173;-58
2020/12/09 01:19:33;;;;;;;26.83;18.40;;;1.80;99.90;;;;;;5071703;28;20251;-58
2020/12/09 01:22:03;;;;;;;27.53;19.40;;;1.70;99.90;;;;;;5071856;28;20804;-59
2020/12/09 01:24:28;;;;;;;25.67;19.27;;;1.70;99.90;;;;;;5071560;28;20516;-58
2020/12/09 01:26:54;;;;;;;25.83;19.00;;;1.70;99.90;;;;;;5071432;28;20552;-56
2020/12/09 01:29:19;;;;;;;23.00;18.17;;;1.70;99.90;;;;;;5071663;28;20171;-58
2020/12/09 01:31:47;;;;;;;29.97;21.17;;;1.70;99.90;;;;;;5071780;28;20220;-58
2020/12/09 01:34:14;;;;;;;21.13;16.90;;;1.70;99.90;;;;;;5071324;28;20180;-58
2020/12/09 01:36:39;;;;;;;22.40;19.27;;;1.70;99.90;;;;;;5071565;28;20466;-58
2020/12/09 01:39:05;;;;;;;28.47;18.47;;;1.70;99.90;;;;;;5071718;28;20784;-58
2020/12/09 01:41:30;;;;;;;24.73;17.97;;;1.80;99.90;;;;;;5071492;28;20209;-59
2020/12/09 01:43:56;;;;;;;20.73;16.20;;;1.70;99.90;;;;;;5071484;28;20202;-59
2020/12/09 01:46:29;;;;;;;24.90;19.07;;;1.70;99.90;;;;;;5071401;28;20230;-58
2020/12/09 01:48:56;;;;;;;21.20;17.40;;;1.70;99.90;;;;;;5071505;28;20175;-58
2020/12/09 01:51:24;;;;;;;25.03;17.67;;;1.60;99.90;;;;;;5071335;28;20409;-58
2020/12/09 01:53:53;;;;;;;22.10;17.60;;;1.70;99.90;;;;;;5071398;28;20769;-59
2020/12/09 01:56:19;;;;;;;28.33;18.40;;;1.70;99.90;;;;;;5071318;28;20405;-56
2020/12/09 01:58:45;;;;;;;22.07;16.13;;;1.70;99.90;;;;;;5071059;28;20440;-58
2020/12/09 02:01:11;;;;;;;21.77;17.03;;;1.70;99.90;;;;;;5071266;28;20175;-59
2020/12/09 02:03:38;;;;;;;25.60;19.63;;;1.70;99.90;;;;;;5071345;28;20280;-59
2020/12/09 02:06:04;;;;;;;23.37;17.90;;;1.60;99.90;;;;;;5071342;28;20486;-58
2020/12/09 02:08:30;;;;;;;28.03;19.80;;;1.60;99.90;;;;;;5071007;28;20436;-58
2020/12/09 02:10:59;;;;;;;23.13;17.73;;;1.60;99.90;;;;;;5071469;28;20897;-58
2020/12/09 02:13:28;;;;;;;23.17;18.33;;;1.60;99.90;;;;;;5071141;28;20540;-58
2020/12/09 02:15:55;;;;;;;25.00;18.67;;;1.60;99.90;;;;;;5071291;28;20433;-55
2020/12/09 02:18:21;;;;;;;27.30;18.53;;;1.60;99.90;;;;;;5070867;28;20416;-58
2020/12/09 02:20:47;;;;;;;27.93;19.00;;;1.50;99.90;;;;;;5071309;28;20768;-56
2020/12/09 02:23:13;;;;;;;23.53;19.53;;;1.50;99.90;;;;;;5074070;28;20433;-59
2020/12/09 02:25:39;;;;;;;27.73;21.10;;;1.60;99.90;;;;;;5074937;28;20276;-58
2020/12/09 02:28:04;;;;;;;25.30;19.10;;;1.60;99.90;;;;;;5074628;28;20983;-59
2020/12/09 02:30:30;;;;;;;26.90;19.70;;;1.60;99.90;;;;;;5074745;28;20175;-58
2020/12/09 02:32:55;;;;;;;30.40;20.30;;;1.60;99.90;;;;;;5074802;28;20198;-58
2020/12/09 02:35:21;;;;;;;30.33;21.40;;;1.60;99.90;;;;;;5074533;28;20171;-58
2020/12/09 02:37:47;;;;;;;35.63;21.53;;;1.60;99.90;;;;;;5074487;28;20167;-55
2020/12/09 02:40:12;;;;;;;29.37;22.67;;;1.60;99.90;;;;;;5074574;28;20405;-57
2020/12/09 02:42:39;;;;;;;30.40;21.07;;;1.70;99.90;;;;;;5074642;28;20197;-59
2020/12/09 02:45:04;;;;;;;36.17;23.00;;;1.60;99.90;;;;;;5074327;28;20171;-59
2020/12/09 02:47:30;;;;;;;34.53;21.93;;;1.60;99.90;;;;;;5074276;28;20479;-56
2020/12/09 02:49:55;;;;;;;34.07;23.80;;;1.60;99.90;;;;;;5074318;28;20172;-59
2020/12/09 02:52:21;;;;;;;34.40;22.73;;;1.60;99.90;;;;;;5074466;28;20527;-58
2020/12/09 02:54:47;;;;;;;37.30;22.60;;;1.60;99.90;;;;;;5074428;28;20171;-58
2020/12/09 02:57:12;;;;;;;33.27;23.67;;;1.70;99.90;;;;;;5073966;28;20537;-58
2020/12/09 02:59:38;;;;;;;32.17;21.70;;;1.60;99.90;;;;;;5074160;28;20190;-59
2020/12/09 03:02:03;;;;;;;39.33;22.40;;;1.70;99.90;;;;;;5074261;28;20194;-58
2020/12/09 03:04:29;;;;;;;38.93;24.17;;;1.70;99.90;;;;;;5074086;28;20282;-58
2020/12/09 03:06:54;;;;;;;36.43;23.27;;;1.70;99.90;;;;;;5073716;28;20615;-59
2020/12/09 03:09:20;;;;;;;38.20;23.87;;;1.80;99.90;;;;;;5074211;28;20171;-59
2020/12/09 03:11:45;;;;;;;40.77;25.03;;;1.90;99.90;;;;;;5073979;28;20197;-59
2020/12/09 03:14:11;;;;;;;38.60;23.07;;;1.80;99.90;;;;;;5073900;28;20190;-59
2020/12/09 03:16:36;;;;;;;40.00;24.63;;;1.90;99.90;;;;;;5073733;28;20175;-59
2020/12/09 03:19:02;;;;;;;42.97;25.20;;;1.90;99.90;;;;;;5073846;28;20167;-59
2020/12/09 03:21:30;;;;;;;41.77;27.20;;;1.90;99.90;;;;;;5073983;28;20183;-58
2020/12/09 03:23:56;;;;;;;40.33;23.40;;;1.90;99.90;;;;;;5073611;28;20190;-58
2020/12/09 03:26:22;;;;;;;41.17;25.40;;;1.90;99.90;;;;;;5074335;28;20456;-57
2020/12/09 03:28:47;;;;;;;42.10;26.10;;;1.90;99.90;;;;;;5073256;28;20394;-59
2020/12/09 03:31:13;;;;;;;35.70;23.83;;;1.90;99.90;;;;;;5073814;28;20163;-55
2020/12/09 03:33:39;;;;;;;44.10;24.97;;;1.90;99.90;;;;;;5072422;28;20237;-57
2020/12/09 03:36:05;;;;;;;33.17;23.83;;;1.80;99.90;;;;;;5073702;28;20679;-52
2020/12/09 03:38:30;;;;;;;36.47;24.37;;;1.70;99.90;;;;;;5073229;28;20201;-52
2020/12/09 03:40:56;;;;;;;42.90;23.93;;;1.70;99.90;;;;;;5073651;28;20409;-50
2020/12/09 03:43:22;;;;;;;38.67;24.00;;;1.70;99.90;;;;;;5073290;28;20626;-52
2020/12/09 03:45:47;;;;;;;35.97;24.47;;;1.80;99.90;;;;;;5073310;28;20195;-56
2020/12/09 03:48:13;;;;;;;36.20;23.97;;;1.80;99.90;;;;;;5072601;28;20556;-60
2020/12/09 03:50:38;;;;;;;38.67;23.97;;;1.90;99.90;;;;;;5072179;28;20174;-53
2020/12/09 03:53:04;;;;;;;40.63;23.33;;;1.90;99.90;;;;;;5073052;28;20603;-50
2020/12/09 03:55:30;;;;;;;34.83;23.20;;;1.90;99.90;;;;;;5073071;28;20546;-55
2020/12/09 03:57:59;;;;;;;35.43;22.17;;;1.90;99.90;;;;;;5072843;28;20179;-55
2020/12/09 04:00:26;;;;;;;41.13;24.67;;;1.90;99.90;;;;;;5073139;28;20159;-53
2020/12/09 04:02:51;;;;;;;31.17;21.20;;;1.90;99.90;;;;;;5073002;28;20508;-56
2020/12/09 04:05:17;;;;;;;39.43;22.87;;;1.90;99.90;;;;;;5072892;28;20160;-55
2020/12/09 04:07:42;;;;;;;37.80;24.30;;;1.90;99.90;;;;;;5072730;28;20195;-56
2020/12/09 04:10:08;;;;;;;31.67;23.33;;;1.90;99.90;;;;;;5072992;28;20643;-52
2020/12/09 04:12:34;;;;;;;41.60;24.57;;;2.00;99.90;;;;;;5072624;28;20194;-52
2020/12/09 04:14:59;;;;;;;37.03;22.60;;;1.90;99.90;;;;;;5072803;28;20397;-56
2020/12/09 04:17:25;;;;;;;38.47;23.77;;;1.90;99.90;;;;;;5072374;28;20171;-55
2020/12/09 04:19:51;;;;;;;35.07;24.03;;;1.90;99.90;;;;;;5072859;28;20181;-51
2020/12/09 04:22:16;;;;;;;37.33;22.70;;;2.00;99.90;;;;;;5072489;28;20167;-55
2020/12/09 04:24:42;;;;;;;39.03;25.37;;;2.00;99.90;;;;;;5072678;28;20199;-58
2020/12/09 04:27:08;;;;;;;37.83;23.57;;;2.00;99.90;;;;;;5072071;28;20202;-56
2020/12/09 04:29:34;;;;;;;37.03;23.30;;;2.00;99.90;;;;;;5072622;28;20423;-56
2020/12/09 04:32:00;;;;;;;34.67;22.13;;;2.00;99.90;;;;;;5072415;28;20398;-59
2020/12/09 04:34:26;;;;;;;34.57;25.40;;;2.00;99.90;;;;;;5072287;28;20471;-53
2020/12/09 04:36:53;;;;;;;36.43;21.30;;;2.00;99.90;;;;;;5072219;28;20166;-53
2020/12/09 04:39:19;;;;;;;40.47;24.90;;;2.00;99.90;;;;;;5072377;28;20548;-58
2020/12/09 04:41:46;;;;;;;35.30;24.40;;;2.00;99.90;;;;;;5071013;28;20421;-50
2020/12/09 04:44:12;;;;;;;38.23;24.33;;;2.00;99.90;;;;;;5071971;28;20421;-55
2020/12/09 04:46:42;;;;;;;38.27;23.50;;;1.90;99.90;;;;;;5071833;28;20514;-52
2020/12/09 04:49:14;;;;;;;36.03;23.70;;;2.00;99.90;;;;;;5072110;28;20451;-53
2020/12/09 04:52:11;;;;;;;39.53;22.53;;;2.00;99.90;;;;;;5072279;28;20497;-50
2020/12/09 04:54:41;;;;;;;37.73;24.40;;;1.90;99.90;;;;;;5071953;28;20394;-52
2020/12/09 04:57:26;;;;;;;37.57;24.63;;;1.90;99.90;;;;;;5071881;28;20405;-55
2020/12/09 05:00:00;;;;;;;35.60;22.90;;;1.90;99.90;;;;;;5071986;28;20413;-52
2020/12/09 05:02:46;;;;;;;27.87;20.03;;;1.90;99.90;;;;;;5071981;28;20451;-54
2020/12/09 05:05:14;;;;;;;30.10;20.53;;;1.80;99.90;;;;;;5071851;28;20404;-56
2020/12/09 05:07:48;;;;;;;31.00;19.47;;;1.80;99.90;;;;;;5071667;28;20502;-50
2020/12/09 05:10:19;;;;;;;28.93;19.50;;;1.90;99.90;;;;;;5071859;28;20400;-53
2020/12/09 05:12:48;;;;;;;31.97;21.00;;;1.80;99.90;;;;;;5071937;28;20791;-56
2020/12/09 05:15:20;;;;;;;30.03;19.30;;;1.80;99.90;;;;;;5071829;28;21054;-58
2020/12/09 05:18:09;;;;;;;29.97;20.80;;;1.90;99.90;;;;;;5071569;28;20816;-58
2020/12/09 05:20:38;;;;;;;28.07;20.63;;;1.80;99.90;;;;;;5071394;28;20422;-52
2020/12/09 05:23:05;;;;;;;34.43;23.93;;;1.90;99.90;;;;;;5071708;28;20478;-57
2020/12/09 05:25:32;;;;;;;37.57;24.13;;;1.90;99.90;;;;;;5071544;28;20416;-54
2020/12/09 05:27:59;;;;;;;28.77;19.93;;;1.90;99.90;;;;;;5071434;28;20397;-56
2020/12/09 05:30:42;;;;;;;28.57;19.33;;;1.90;99.90;;;;;;5071734;28;20425;-53
2020/12/09 05:33:10;;;;;;;24.90;19.47;;;1.80;99.90;;;;;;5071493;28;20475;-59
2020/12/09 05:35:37;;;;;;;22.50;16.30;;;1.80;99.90;;;;;;5071685;28;20433;-55
2020/12/09 05:38:14;;;;;;;23.30;17.90;;;1.80;99.90;;;;;;5071225;28;20397;-51
2020/12/09 05:40:43;;;;;;;22.07;15.67;;;1.70;99.90;;;;;;5071731;28;20409;-54
2020/12/09 05:43:10;;;;;;;25.20;17.73;;;1.80;99.90;;;;;;5071487;28;20425;-54
2020/12/09 05:45:36;;;;;;;20.73;16.33;;;1.70;99.90;;;;;;5071488;28;20452;-54
2020/12/09 05:48:24;;;;;;;20.43;14.87;;;1.70;99.90;;;;;;5071181;28;20929;-61
2020/12/09 05:50:54;;;;;;;20.43;14.87;;;1.70;99.90;;;;;;5071670;28;20756;-51
2020/12/09 05:53:31;;;;;;;21.13;16.40;;;1.70;99.90;;;;;;5070221;28;20473;-51
2020/12/09 05:56:16;;;;;;;19.00;13.90;;;1.60;99.90;;;;;;5071570;28;20397;-51
2020/12/09 05:58:51;;;;;;;21.67;13.87;;;1.60;99.90;;;;;;5075001;28;20453;-52
2020/12/09 06:01:22;;;;;;;16.57;13.27;;;1.50;99.90;;;;;;5075497;28;20401;-55
2020/12/09 06:03:57;;;;;;;21.50;15.60;;;1.40;99.90;;;;;;5075381;28;20945;-50
2020/12/09 06:06:22;;;;;;;18.70;13.37;;;1.40;99.90;;;;;;5075215;28;20452;-57
2020/12/09 06:08:50;;;;;;;14.60;12.93;;;1.40;99.90;;;;;;5075078;28;20477;-51
2020/12/09 06:11:21;;;;;;;16.63;14.80;;;1.40;99.90;;;;;;5075067;28;20186;-63
2020/12/09 06:13:47;;;;;;;20.27;13.40;;;1.40;99.90;;;;;;5073171;28;20418;-54
2020/12/09 06:16:13;;;;;;;17.43;13.83;;;1.30;99.90;;;;;;5074916;28;20844;-55
2020/12/09 06:18:43;;;;;;;14.53;12.97;;;1.30;99.90;;;;;;5074850;28;20496;-56
2020/12/09 06:21:08;;;;;;;18.97;14.23;;;1.20;99.90;;;;;;5074912;28;20398;-50
2020/12/09 06:23:34;;;;;;;17.27;13.20;;;1.30;99.90;;;;;;5074814;28;20512;-51
2020/12/09 06:26:02;;;;;;;14.90;13.17;;;1.20;99.90;;;;;;5074736;28;20249;-57
2020/12/09 06:28:30;;;;;;;17.93;13.60;;;1.20;99.90;;;;;;5074691;28;20783;-50
2020/12/09 06:30:58;;;;;;;20.33;13.87;;;1.10;99.90;;;;;;5074836;28;20448;-55
2020/12/09 06:33:36;;;;;;;17.10;12.63;;;1.10;99.90;;;;;;5074687;28;20787;-52
2020/12/09 06:36:20;;;;;;;18.20;13.30;;;0.90;99.90;;;;;;5074804;28;20401;-54
2020/12/09 06:39:16;;;;;;;18.03;13.83;;;0.90;99.90;;;;;;5074318;28;20408;-55
2020/12/09 06:41:51;;;;;;;13.03;11.60;;;0.90;99.90;;;;;;5074724;28;20422;-50
2020/12/09 06:44:17;;;;;;;18.27;12.07;;;0.80;99.90;;;;;;5074301;28;20518;-54
2020/12/09 06:46:52;;;;;;;14.53;12.70;;;0.80;99.90;;;;;;5074138;28;20542;-53
2020/12/09 06:49:29;;;;;;;15.07;11.50;;;0.70;99.90;;;;;;5074412;28;20412;-50
2020/12/09 06:51:56;;;;;;;17.93;12.80;;;0.70;99.90;;;;;;5074522;28;20393;-50
2020/12/09 06:54:39;;;;;;;15.27;12.33;;;0.60;99.90;;;;;;5074128;28;20424;-52
2020/12/09 06:57:13;;;;;;;11.17;10.07;;;0.50;99.90;;;;;;5074091;28;20455;-50
2020/12/09 06:59:39;;;;;;;15.55;11.60;;;0.40;99.90;;;;;;5074047;28;20425;-51
2020/12/09 07:02:06;;;;;;;13.63;9.40;;;0.40;99.90;;;;;;5074355;28;20187;-50
2020/12/09 07:04:53;;;;;;;14.60;11.25;;;0.30;99.90;;;;;;5073935;28;20529;-51
2020/12/09 07:07:37;;;;;;;13.38;10.93;;;0.20;99.90;;;;;;5073789;28;20204;-51
2020/12/09 07:10:19;;;;;;;13.50;10.57;;;0.30;99.90;;;;;;5073169;28;20169;-54
2020/12/09 07:13:11;;;;;;;15.57;11.00;;;0.30;99.90;;;;;;5074091;28;20420;-56
2020/12/09 07:15:46;;;;;;;15.63;11.55;;;0.30;99.90;;;;;;5073497;28;20185;-57
2020/12/09 07:18:13;;;;;;;14.52;10.50;;;0.30;99.90;;;;;;5074130;28;20775;-53
2020/12/09 07:20:39;;;;;;;15.38;11.80;;;0.40;99.90;;;;;;5073816;28;20179;-55
2020/12/09 07:23:05;;;;;;;14.13;10.75;;;0.40;99.90;;;;;;5073929;28;20192;-54
2020/12/09 07:25:35;;;;;;;13.97;10.73;;;0.40;99.90;;;;;;5073836;28;20163;-52
2020/12/09 07:28:02;;;;;;;12.53;11.10;;;0.30;99.90;;;;;;5073331;28;20393;-55
2020/12/09 07:30:28;;;;;;;13.00;10.00;;;0.30;99.90;;;;;;5073699;28;20483;-54
2020/12/09 07:32:55;;;;;;;11.80;10.73;;;0.30;99.90;;;;;;5073708;28;20206;-50
2020/12/09 07:35:21;;;;;;;15.23;10.52;;;0.30;99.90;;;;;;5073667;28;20452;-51
2020/12/09 07:37:52;;;;;;;13.70;10.57;;;0.20;99.90;;;;;;5073210;28;20174;-51
2020/12/09 07:40:26;;;;;;;11.38;10.13;;;0.20;99.90;;;;;;5073674;28;20167;-50
2020/12/09 07:43:18;;;;;;;16.30;12.00;;;0.20;99.90;;;;;;5073264;28;20667;-49
2020/12/09 07:45:44;;;;;;;15.30;10.33;;;0.20;99.90;;;;;;5073226;28;20559;-60
2020/12/09 07:48:16;;;;;;;12.60;10.13;;;0.10;99.90;;;;;;5072980;28;20831;-51
2020/12/09 07:50:51;;;;;;;16.07;11.60;;;0.20;99.90;;;;;;5073388;28;20439;-56
2020/12/09 07:53:17;;;;;;;15.10;11.27;;;0.20;99.90;;;;;;5073156;28;20785;-50
2020/12/09 07:55:43;;;;;;;16.50;12.10;;;0.20;99.90;;;;;;5073223;28;20407;-52
2020/12/09 07:58:16;;;;;;;16.40;11.73;;;0.20;99.90;;;;;;5072825;28;20197;-49
2020/12/09 08:00:49;;;;;;;11.00;9.90;;;0.20;99.90;;;;;;5073161;28;20169;-52
2020/12/09 08:03:22;;;;;;;10.88;9.60;;;0.20;99.90;;;;;;5073165;28;20179;-50
2020/12/09 08:05:49;;;;;;;12.77;10.35;;;0.20;99.90;;;;;;5072650;28;20196;-52
2020/12/09 08:08:15;;;;;;;11.82;10.65;;;0.20;99.90;;;;;;5072829;28;20244;-50
2020/12/09 08:10:43;;;;;;;15.03;10.53;;;0.20;99.90;;;;;;5072824;28;20246;-54
2020/12/09 08:13:29;;;;;;;13.02;10.93;;;0.30;99.90;;;;;;5072841;28;20434;-51
2020/12/09 08:16:13;;;;;;;13.70;10.40;;;0.20;99.90;;;;;;5072539;28;20605;-55
2020/12/09 08:18:40;;;;;;;16.10;11.20;;;0.20;99.90;;;;;;5072593;28;20405;-52
2020/12/09 08:21:08;;;;;;;12.13;10.38;;;0.30;99.90;;;;;;5072213;28;20470;-58
2020/12/09 08:23:52;;;;;;;13.02;11.20;;;0.20;99.90;;;;;;5072647;28;20192;-58
2020/12/09 08:26:29;;;;;;;10.00;8.90;;;0.30;99.90;;;;;;5072409;28;20683;-56
2020/12/09 08:28:55;;;;;;;11.98;9.60;;;0.40;99.90;;;;;;5072540;28;20397;-51
2020/12/09 08:31:21;;;;;;;13.73;10.20;;;0.50;99.90;;;;;;5072410;28;20657;-61
2020/12/09 08:33:46;;;;;;;12.53;11.43;;;0.50;99.90;;;;;;5072386;28;20490;-53
2020/12/09 08:36:14;;;;;;;10.93;8.17;;;0.70;99.90;;;;;;5072369;28;20177;-52
2020/12/09 08:38:42;;;;;;;11.80;10.33;;;0.70;99.90;;;;;;5072223;28;20175;-60
2020/12/09 08:41:29;;;;;;;14.25;10.52;;;0.80;99.90;;;;;;5072348;28;20406;-64
2020/12/09 08:43:57;;;;;;;11.57;9.27;;;0.90;99.90;;;;;;5071877;28;20231;-54
2020/12/09 08:46:24;;;;;;;11.10;9.38;;;0.90;99.90;;;;;;5070958;28;20291;-55
2020/12/09 08:48:50;;;;;;;12.02;10.13;;;1.00;99.90;;;;;;5071927;28;20565;-52
2020/12/09 08:51:15;;;;;;;11.80;9.30;;;1.10;99.90;;;;;;5072267;28;20172;-53
2020/12/09 08:53:41;;;;;;;11.17;9.27;;;1.20;99.90;;;;;;5071819;28;20419;-55
2020/12/09 08:56:07;;;;;;;9.80;8.77;;;1.30;99.90;;;;;;5072134;28;20169;-56
2020/12/09 08:58:33;;;;;;;11.30;7.90;;;1.30;99.90;;;;;;5071572;28;20192;-51
2020/12/09 09:01:00;;;;;;;11.53;9.00;;;1.40;99.90;;;;;;5072297;28;20199;-66
2020/12/09 09:03:27;;;;;;;12.55;9.15;;;1.50;99.90;;;;;;5071848;28;20217;-51
2020/12/09 09:05:58;;;;;;;9.38;7.95;;;1.60;99.90;;;;;;5072021;28;20721;-56
2020/12/09 09:08:24;;;;;;;8.82;7.95;;;1.80;99.90;;;;;;5071626;28;20561;-55
2020/12/09 09:10:50;;;;;;;11.70;8.37;;;2.00;99.90;;;;;;5071921;28;20156;-53
2020/12/09 09:13:15;;;;;;;10.57;8.23;;;2.30;99.90;;;;;;5071898;28;20273;-56
2020/12/09 09:15:41;;;;;;;10.10;8.03;;;2.60;99.90;;;;;;5071734;28;20417;-54
2020/12/09 09:18:08;;;;;;;8.93;7.83;;;3.00;99.90;;;;;;5071644;28;20246;-51
2020/12/09 09:20:34;;;;;;;9.93;8.37;;;3.50;99.90;;;;;;5071757;28;20194;-57
2020/12/09 09:23:04;;;;;;;10.30;8.20;;;4.00;99.20;;;;;;5071713;28;20428;-66
2020/12/09 09:25:31;;;;;;;10.43;8.27;;;4.50;98.10;;;;;;5070794;28;20960;-64
2020/12/09 09:27:56;;;;;;;7.27;6.57;;;5.10;97.20;;;;;;5071438;28;20457;-50
2020/12/09 09:30:23;;;;;;;9.60;7.33;;;5.70;96.00;;;;;;5071635;28;20489;-51
2020/12/09 09:32:49;;;;;;;9.10;7.10;;;6.10;95.50;;;;;;5070902;28;20187;-51
2020/12/09 09:35:16;;;;;;;7.47;6.70;;;6.50;95.00;;;;;;5071583;28;20398;-50
2020/12/09 09:37:42;;;;;;;7.07;6.37;;;7.00;94.20;;;;;;5071396;28;20416;-51
2020/12/09 09:40:08;;;;;;;7.43;6.70;;;7.40;93.50;;;;;;5071707;28;20401;-52
2020/12/09 09:42:34;;;;;;;8.00;7.20;;;7.70;93.50;;;;;;5071471;28;20964;-58
2020/12/09 09:45:02;;;;;;;6.43;5.93;;;8.10;92.20;;;;;;5071633;28;20437;-58
2020/12/09 09:47:28;;;;;;;5.67;5.17;;;8.40;91.60;;;;;;5071129;28;20534;-56
2020/12/09 09:49:55;;;;;;;5.10;4.70;;;8.80;90.70;;;;;;5071711;28;20455;-50
2020/12/09 09:52:20;;;;;;;5.97;5.47;;;9.10;87.70;;;;;;5071373;28;20450;-57
2020/12/09 09:54:46;;;;;;;5.93;5.43;;;9.40;86.50;;;;;;5071417;28;20429;-53
2020/12/09 09:57:11;;;;;;;6.97;6.33;;;9.80;87.00;;;;;;5071109;28;20166;-51
2020/12/09 09:59:37;;;;;;;6.30;5.80;;;10.30;81.20;;;;;;5071549;28;20227;-53
2020/12/09 10:02:03;;;;;;;6.60;5.93;;;10.60;81.00;;;;;;5071465;28;20724;-55
2020/12/09 10:04:28;;;;;;;6.97;6.30;;;11.00;79.90;;;;;;5071215;28;20203;-60
2020/12/09 10:06:54;;;;;;;5.77;5.27;;;11.30;79.70;;;;;;5071033;28;20664;-52
2020/12/09 10:09:20;;;;;;;5.30;4.80;;;11.50;78.10;;;;;;5071220;28;20166;-50
2020/12/09 10:11:46;;;;;;;5.87;5.37;;;11.70;78.20;;;;;;5071452;28;20163;-55
2020/12/09 10:14:12;;;;;;;5.20;4.70;;;12.10;79.20;;;;;;5071078;28;20187;-55
2020/12/09 10:16:44;;;;;;;4.67;4.30;;;12.20;76.90;;;;;;5071040;28;20826;-54
2020/12/09 10:19:09;;;;;;;5.50;5.00;;;12.50;77.20;;;;;;5071138;28;20412;-55
2020/12/09 10:21:36;;;;;;;4.23;3.93;;;12.90;76.60;;;;;;5071324;28;20410;-53
2020/12/09 10:24:03;;;;;;;5.40;5.00;;;13.30;75.30;;;;;;5071078;28;20432;-55
2020/12/09 10:26:31;;;;;;;5.63;5.13;;;13.50;72.50;;;;;;5071088;28;20480;-61
2020/12/09 10:29:01;;;;;;;4.80;4.40;;;13.60;71.50;;;;;;5071222;28;20396;-51
2020/12/09 10:31:41;;;;;;;5.50;4.80;;;13.60;69.40;;;;;;5071074;28;20817;-55
2020/12/09 10:34:08;;;;;;;4.23;3.93;;;13.80;71.30;;;;;;5071112;28;20428;-56
2020/12/09 10:36:35;;;;;;;4.37;3.87;;;14.00;69.60;;;;;;5070752;28;20410;-56
2020/12/09 10:39:01;;;;;;;4.30;4.00;;;14.00;69.90;;;;;;5071082;28;20476;-53
2020/12/09 10:41:27;;;;;;;4.97;4.57;;;14.20;65.90;;;;;;5071050;28;20398;-52
2020/12/09 10:43:53;;;;;;;3.87;3.57;;;14.50;67.70;;;;;;5073402;28;20425;-55
2020/12/09 10:46:20;;;;;;;3.87;3.57;;;14.50;62.40;;;;;;5074303;28;20199;-57
2020/12/09 10:48:47;;;;;;;4.60;4.20;;;15.00;65.00;;;;;;5074448;28;20397;-56
2020/12/09 10:51:12;;;;;;;4.53;4.17;;;15.30;66.10;;;;;;5074407;28;20394;-57
2020/12/09 10:53:38;;;;;;;3.87;3.57;;;15.30;59.70;;;;;;5074253;28;20800;-57
2020/12/09 10:56:03;;;;;;;8.57;7.77;;;15.40;59.30;;;;;;5074310;28;20175;-57
2020/12/09 10:58:29;;;;;;;9.67;8.17;;;15.70;63.30;;;;;;5074048;28;20183;-56
2020/12/09 11:00:55;;;;;;;10.23;9.23;;;15.70;64.00;;;;;;5073060;28;20497;-58
2020/12/09 11:03:22;;;;;;;7.90;7.13;;;16.10;62.20;;;;;;5074159;28;20219;-57
2020/12/09 11:05:47;;;;;;;6.03;5.43;;;15.90;60.10;;;;;;5074026;28;20416;-58
2020/12/09 11:08:14;;;;;;;6.17;5.67;;;15.90;59.00;;;;;;5074142;28;20492;-58
2020/12/09 11:10:40;;;;;;;7.90;6.90;;;15.80;59.50;;;;;;5074095;28;20159;-58
2020/12/09 11:13:05;;;;;;;8.37;7.50;;;16.10;58.20;;;;;;5073848;28;20467;-57
2020/12/09 11:15:31;;;;;;;7.67;6.97;;;16.20;57.80;;;;;;5073734;28;20296;-57
2020/12/09 11:17:57;;;;;;;10.20;9.07;;;16.00;57.50;;;;;;5073340;28;20197;-54
2020/12/09 11:20:23;;;;;;;9.37;8.37;;;15.90;57.90;;;;;;5074023;28;20401;-55
2020/12/09 11:22:48;;;;;;;12.23;10.50;;;15.70;57.50;;;;;;5072305;28;20195;-58
2020/12/09 11:25:14;;;;;;;12.73;9.83;;;15.70;57.60;;;;;;5073853;28;20171;-55
2020/12/09 11:27:40;;;;;;;11.27;10.20;;;15.90;59.30;;;;;;5073398;28;20199;-56
2020/12/09 11:30:05;;;;;;;14.00;9.73;;;16.20;56.90;;;;;;5073700;28;20164;-55
2020/12/09 11:32:35;;;;;;;9.67;8.67;;;16.80;57.00;;;;;;5073567;28;20563;-58
2020/12/09 11:35:01;;;;;;;11.30;10.10;;;16.70;57.80;;;;;;5073683;28;20164;-55
2020/12/09 11:37:27;;;;;;;13.10;11.77;;;17.00;56.50;;;;;;5073214;28;20497;-60
2020/12/09 11:39:53;;;;;;;10.60;9.50;;;17.20;58.20;;;;;;5073660;28;20405;-55
2020/12/09 11:42:18;;;;;;;9.93;8.93;;;17.30;55.20;;;;;;5073315;28;20523;-57
2020/12/09 11:44:44;;;;;;;13.17;10.60;;;17.30;56.60;;;;;;5073404;28;20459;-55
2020/12/09 11:47:09;;;;;;;11.23;10.13;;;17.40;56.20;;;;;;5073092;28;20570;-56
2020/12/09 11:49:35;;;;;;;10.90;9.77;;;17.60;56.50;;;;;;5073481;28;20590;-59
2020/12/09 11:52:01;;;;;;;9.80;8.80;;;17.40;55.80;;;;;;5073295;28;20181;-58
2020/12/09 11:54:26;;;;;;;8.43;7.53;;;17.20;53.80;;;;;;5072306;28;20187;-57
2020/12/09 11:56:52;;;;;;;10.47;9.47;;;17.50;56.20;;;;;;5072998;28;20254;-57
2020/12/09 11:59:18;;;;;;;9.80;8.37;;;17.60;54.20;;;;;;5072879;28;20546;-58
2020/12/09 12:01:43;;;;;;;8.87;7.97;;;17.40;56.20;;;;;;5071847;28;20171;-60
2020/12/09 12:04:09;;;;;;;8.13;7.13;;;18.30;56.30;;;;;;5072812;28;20933;-57
2020/12/09 12:06:35;;;;;;;7.70;7.00;;;18.20;54.90;;;;;;5072748;28;20191;-57
2020/12/09 12:09:01;;;;;;;7.50;6.70;;;18.20;53.30;;;;;;5072908;28;20402;-58
2020/12/09 12:11:28;;;;;;;8.47;7.60;;;18.00;52.80;;;;;;5072965;28;20212;-58
2020/12/09 12:13:54;;;;;;;7.90;6.77;;;18.30;54.00;;;;;;5072493;28;20314;-61
2020/12/09 12:16:23;;;;;;;5.73;5.23;;;18.30;53.90;;;;;;5072845;28;20480;-58
2020/12/09 12:18:49;;;;;;;6.10;5.60;;;18.10;53.30;;;;;;5072361;28;20398;-62
2020/12/09 12:21:16;;;;;;;6.37;5.87;;;17.80;51.70;;;;;;5072902;28;20397;-54
2020/12/09 12:23:42;;;;;;;7.90;7.03;;;17.90;51.90;;;;;;5072436;28;20433;-59
2020/12/09 12:26:08;;;;;;;6.80;6.20;;;18.10;52.80;;;;;;5072596;28;20455;-52
2020/12/09 12:28:34;;;;;;;6.30;5.80;;;18.10;52.10;;;;;;5072153;28;20206;-57
2020/12/09 12:31:00;;;;;;;6.50;5.37;;;18.00;51.80;;;;;;5072623;28;20429;-56
2020/12/09 12:33:26;;;;;;;5.90;5.40;;;17.70;51.60;;;;;;5072341;28;20262;-52
2020/12/09 12:35:52;;;;;;;5.87;5.30;;;17.90;52.40;;;;;;5072450;28;20167;-53
2020/12/09 12:38:17;;;;;;;5.77;4.73;;;18.20;53.70;;;;;;5072419;28;20447;-60
2020/12/09 12:40:43;;;;;;;5.00;4.60;;;18.10;54.20;;;;;;5071019;28;20175;-53
2020/12/09 12:43:08;;;;;;;5.43;4.93;;;18.50;53.70;;;;;;5072249;28;20241;-59
2020/12/09 12:45:34;;;;;;;5.43;5.03;;;18.40;52.30;;;;;;5072164;28;20203;-54